Time;durP1;ratioP1;P1;durP2;ratioP2;P2;SDS_P1;SDS_P2;PMS_P1;PMS_P2;Temp;Humidity;BMP_temperature;BMP_pressure;BME280_temperature;BME280_humidity;BME280_pressure;Samples;Min_cycle;Max_cycle;Signal;HPM_P1;HPM_P2
2022/12/27 00:00:24;;;;;;;1.70;1.45;;;18.90;67.50;;;;;;5032510;28;20121;-75
2022/12/27 00:02:49;;;;;;;2.22;1.45;;;18.90;67.50;;;;;;5033771;28;20029;-75
2022/12/27 00:05:15;;;;;;;2.20;1.50;;;18.90;67.50;;;;;;5032460;28;20068;-75
2022/12/27 00:07:42;;;;;;;1.95;1.38;;;18.90;67.60;;;;;;5033899;28;20026;-75
2022/12/27 00:10:08;;;;;;;1.38;1.27;;;18.90;67.60;;;;;;5032678;28;20017;-75
2022/12/27 00:12:34;;;;;;;1.60;1.30;;;18.90;67.50;;;;;;5030768;28;20033;-75
2022/12/27 00:14:59;;;;;;;2.20;1.42;;;18.90;67.50;;;;;;5012529;28;20132;-74
2022/12/27 00:17:26;;;;;;;2.33;1.67;;;18.90;67.50;;;;;;5012700;28;20033;-75
2022/12/27 00:19:51;;;;;;;1.83;1.40;;;18.80;67.50;;;;;;4996446;28;20037;-74
2022/12/27 00:22:17;;;;;;;3.85;1.38;;;18.90;67.50;;;;;;5013683;28;20034;-74
2022/12/27 00:24:43;;;;;;;1.80;1.40;;;18.90;67.50;;;;;;5012539;28;20022;-74
2022/12/27 00:27:08;;;;;;;1.67;1.33;;;18.80;67.50;;;;;;5013701;28;20033;-75
2022/12/27 00:29:34;;;;;;;1.40;1.30;;;18.90;67.60;;;;;;5012349;28;20263;-75
2022/12/27 00:31:59;;;;;;;1.75;1.40;;;18.90;67.60;;;;;;5013548;28;20060;-75
2022/12/27 00:34:25;;;;;;;4.68;1.42;;;18.90;67.60;;;;;;5012491;28;20021;-75
2022/12/27 00:36:51;;;;;;;1.55;1.38;;;18.80;67.50;;;;;;5013719;28;20030;-75
2022/12/27 00:39:16;;;;;;;2.53;1.42;;;18.90;67.60;;;;;;5012364;28;20033;-75
2022/12/27 00:41:42;;;;;;;2.50;1.38;;;18.90;67.60;;;;;;5012297;28;20049;-75
2022/12/27 00:44:08;;;;;;;3.08;1.40;;;18.90;68.60;;;;;;5011801;28;20396;-75
2022/12/27 00:46:33;;;;;;;1.45;1.30;;;18.90;67.60;;;;;;5012274;28;20022;-74
2022/12/27 00:48:59;;;;;;;1.45;1.35;;;18.90;67.60;;;;;;5013176;28;20065;-75
2022/12/27 00:51:25;;;;;;;1.48;1.38;;;18.90;67.70;;;;;;5012417;28;20365;-75
2022/12/27 00:53:51;;;;;;;1.70;1.40;;;18.90;67.70;;;;;;5012347;28;20018;-75
2022/12/27 00:56:22;;;;;;;3.10;1.30;;;18.90;67.70;;;;;;5011838;28;20034;-75
2022/12/27 00:58:52;;;;;;;1.35;1.25;;;18.90;67.70;;;;;;5011667;28;20108;-75
2022/12/27 01:01:18;;;;;;;1.35;1.25;;;18.90;67.80;;;;;;5011845;28;20080;-74
2022/12/27 01:03:44;;;;;;;1.52;1.30;;;18.90;67.80;;;;;;5013260;28;20084;-75
2022/12/27 01:06:11;;;;;;;1.30;1.20;;;18.90;67.80;;;;;;5024104;28;20496;-74
2022/12/27 01:08:37;;;;;;;1.58;1.23;;;18.90;67.90;;;;;;5031790;28;20100;-75
2022/12/27 01:11:03;;;;;;;1.95;1.40;;;18.90;67.90;;;;;;5031514;28;20448;-75
2022/12/27 01:13:29;;;;;;;2.05;1.08;;;18.90;67.90;;;;;;5005565;28;20018;-74
2022/12/27 01:15:55;;;;;;;1.63;1.35;;;18.90;67.90;;;;;;5011856;28;20038;-75
2022/12/27 01:18:20;;;;;;;1.75;1.40;;;18.80;67.80;;;;;;5011625;28;20025;-75
2022/12/27 01:20:46;;;;;;;1.38;1.10;;;18.90;67.90;;;;;;5012789;28;20029;-75
2022/12/27 01:23:12;;;;;;;2.80;1.08;;;18.90;67.90;;;;;;5012810;28;20022;-75
2022/12/27 01:25:37;;;;;;;1.40;1.30;;;18.90;67.90;;;;;;5012724;28;20034;-75
2022/12/27 01:28:03;;;;;;;1.52;1.30;;;18.90;67.90;;;;;;5011385;28;20408;-74
2022/12/27 01:30:32;;;;;;;1.35;1.10;;;18.90;67.90;;;;;;5011593;28;20034;-75
2022/12/27 01:32:57;;;;;;;1.98;1.40;;;18.90;68.00;;;;;;5012628;28;20065;-74
2022/12/27 01:35:23;;;;;;;1.42;1.33;;;18.90;67.90;;;;;;5011257;28;20496;-75
2022/12/27 01:37:49;;;;;;;3.53;1.48;;;18.90;67.90;;;;;;5011680;28;20022;-75
2022/12/27 01:40:14;;;;;;;2.80;1.10;;;18.90;67.90;;;;;;5011227;28;20034;-75
2022/12/27 01:42:52;;;;;;;2.17;1.10;;;18.90;67.90;;;;;;5011466;28;20050;-74
2022/12/27 01:45:21;;;;;;;1.15;1.05;;;18.90;67.90;;;;;;5012382;28;20113;-75
2022/12/27 01:48:09;;;;;;;1.77;1.20;;;18.90;67.90;;;;;;5011659;28;20025;-74
2022/12/27 01:50:44;;;;;;;1.15;0.82;;;18.90;67.90;;;;;;5012663;28;20480;-75
2022/12/27 01:53:22;;;;;;;1.63;1.40;;;18.90;67.90;;;;;;5011386;28;20137;-75
2022/12/27 01:55:51;;;;;;;1.10;1.05;;;18.90;67.80;;;;;;5011364;28;20109;-75
2022/12/27 01:58:41;;;;;;;1.35;1.25;;;18.90;67.90;;;;;;5011182;28;20026;-74
2022/12/27 02:01:10;;;;;;;1.33;1.23;;;18.90;67.90;;;;;;5013145;28;20041;-75
2022/12/27 02:03:41;;;;;;;2.22;1.10;;;18.90;67.90;;;;;;5015218;28;20025;-74
2022/12/27 02:06:08;;;;;;;1.38;1.00;;;18.90;67.90;;;;;;5027146;28;20056;-74
2022/12/27 02:08:42;;;;;;;1.30;1.00;;;18.90;67.90;;;;;;5035042;28;20496;-75
2022/12/27 02:11:08;;;;;;;1.52;1.17;;;18.90;67.90;;;;;;5034624;28;20024;-74
2022/12/27 02:13:37;;;;;;;1.25;1.15;;;18.90;67.80;;;;;;5026096;28;20018;-74
2022/12/27 02:16:14;;;;;;;1.20;1.10;;;18.90;67.90;;;;;;5014980;28;20042;-74
2022/12/27 02:18:40;;;;;;;1.10;1.00;;;18.90;67.90;;;;;;5015110;28;20014;-74
2022/12/27 02:21:19;;;;;;;0.93;0.90;;;18.90;67.90;;;;;;5014919;28;20034;-74
2022/12/27 02:24:07;;;;;;;1.38;1.02;;;18.90;67.90;;;;;;5014947;28;20033;-74
2022/12/27 02:26:45;;;;;;;1.23;1.13;;;18.90;67.90;;;;;;5015864;28;20472;-74
2022/12/27 02:29:32;;;;;;;1.25;0.90;;;18.90;67.90;;;;;;5014941;28;20378;-74
2022/12/27 02:32:01;;;;;;;1.45;1.15;;;18.90;67.90;;;;;;5015802;28;20026;-75
2022/12/27 02:34:30;;;;;;;2.10;1.00;;;18.90;67.90;;;;;;5014784;28;20500;-74
2022/12/27 02:36:58;;;;;;;1.30;0.98;;;18.90;67.90;;;;;;5014752;28;20112;-75
2022/12/27 02:39:24;;;;;;;1.20;1.10;;;18.90;67.90;;;;;;5014422;28;20025;-74
2022/12/27 02:53:06;;;;;;;1.20;1.08;;;18.90;67.80;;;;;;5014439;28;20160;-75
2022/12/27 02:59:03;;;;;;;1.15;1.05;;;18.90;67.80;;;;;;5014682;28;20032;-75
2022/12/27 03:04:50;;;;;;;1.10;1.00;;;18.90;67.90;;;;;;5015292;28;20055;-75
2022/12/27 03:07:22;;;;;;;0.90;0.90;;;18.90;67.90;;;;;;5015242;28;20018;-75
2022/12/27 03:15:56;;;;;;;1.35;1.00;;;18.90;68.00;;;;;;5034954;28;20076;-75
2022/12/27 03:18:50;;;;;;;1.20;1.10;;;18.90;68.00;;;;;;5034631;28;20099;-74
2022/12/27 03:26:49;;;;;;;1.85;0.98;;;18.90;68.10;;;;;;5019815;28;20053;-75
2022/12/27 03:34:50;;;;;;;1.02;1.00;;;18.90;68.10;;;;;;5019744;28;20036;-75
2022/12/27 03:43:09;;;;;;;2.22;0.80;;;18.90;68.10;;;;;;5020128;28;20064;-75
2022/12/27 03:43:29;;;;;;;1.10;1.00;;;18.90;68.10;;;;;;5002833;28;20532;-75
2022/12/27 03:49:05;;;;;;;1.08;0.98;;;18.90;68.10;;;;;;5012671;28;20505;-75
2022/12/27 03:51:49;;;;;;;0.88;0.80;;;18.90;68.10;;;;;;4934664;29;20032;-74
2022/12/27 03:54:41;;;;;;;2.15;0.80;;;18.90;68.00;;;;;;4920104;29;20489;-75
2022/12/27 03:57:12;;;;;;;1.00;0.90;;;18.90;68.10;;;;;;4932123;29;20036;-75
2022/12/27 03:59:37;;;;;;;0.80;0.80;;;18.90;68.10;;;;;;4918731;29;20039;-75
2022/12/27 04:02:03;;;;;;;1.08;0.90;;;18.90;68.10;;;;;;4918658;29;20395;-75
2022/12/27 04:04:29;;;;;;;0.63;0.63;;;18.90;68.00;;;;;;4902930;29;20051;-75
2022/12/27 04:06:55;;;;;;;0.93;0.90;;;18.90;68.10;;;;;;4918388;29;20046;-75
2022/12/27 04:36:42;;;;;;;1.15;0.80;;;18.90;68.30;;;;;;5033313;28;20083;-75
2022/12/27 04:39:08;;;;;;;1.85;0.95;;;18.90;68.30;;;;;;5032146;28;20029;-75
2022/12/27 04:55:30;;;;;;;0.73;0.73;;;18.90;68.40;;;;;;5032064;28;20033;-75
2022/12/27 04:57:56;;;;;;;0.70;0.60;;;18.90;68.30;;;;;;5032925;28;20030;-75
2022/12/27 05:03:10;;;;;;;0.60;0.60;;;18.90;68.40;;;;;;5032100;28;20126;-75
2022/12/27 05:05:36;;;;;;;1.27;0.60;;;18.90;68.30;;;;;;5031035;28;20025;-75
2022/12/27 05:16:14;;;;;;;0.70;0.70;;;18.90;68.40;;;;;;5012906;28;20080;-74
2022/12/27 05:18:40;;;;;;;0.60;0.50;;;18.90;68.50;;;;;;5011831;28;20030;-75
2022/12/27 05:21:06;;;;;;;0.93;0.80;;;18.90;68.40;;;;;;5012783;28;20030;-75
2022/12/27 05:26:23;;;;;;;0.88;0.60;;;18.90;68.60;;;;;;5011885;28;20392;-75
2022/12/27 05:28:50;;;;;;;0.77;0.70;;;18.90;68.60;;;;;;5011453;28;20029;-75
2022/12/27 05:31:16;;;;;;;0.98;0.65;;;18.90;68.60;;;;;;5011802;28;20030;-75
2022/12/27 05:33:41;;;;;;;1.13;0.90;;;18.90;68.50;;;;;;5011304;28;20053;-75
2022/12/27 05:36:08;;;;;;;1.55;0.70;;;18.90;68.60;;;;;;5010676;28;20388;-75
2022/12/27 05:38:33;;;;;;;0.98;0.73;;;18.90;68.60;;;;;;5012614;28;20054;-74
2022/12/27 05:40:59;;;;;;;2.92;0.70;;;18.90;68.50;;;;;;5012725;28;20065;-74
2022/12/27 05:43:25;;;;;;;0.60;0.57;;;18.90;68.50;;;;;;5012502;28;20385;-74
2022/12/27 05:45:51;;;;;;;0.70;0.70;;;18.90;68.40;;;;;;5011444;28;20543;-74
2022/12/27 05:48:17;;;;;;;0.95;0.60;;;18.90;68.40;;;;;;5011146;28;20068;-74
2022/12/27 05:50:42;;;;;;;0.50;0.50;;;18.90;68.40;;;;;;5011307;28;20152;-74
2022/12/27 05:53:08;;;;;;;0.50;0.50;;;18.90;68.40;;;;;;4995100;28;20060;-74
2022/12/27 05:55:34;;;;;;;0.88;0.70;;;18.90;68.40;;;;;;5011163;28;20030;-75
2022/12/27 05:57:59;;;;;;;0.50;0.50;;;18.90;68.40;;;;;;5011226;28;20057;-74
2022/12/27 06:00:25;;;;;;;0.70;0.70;;;18.90;68.30;;;;;;5012484;28;20057;-75
2022/12/27 06:02:51;;;;;;;0.60;0.60;;;18.90;68.40;;;;;;5012165;28;20108;-74
2022/12/27 06:05:17;;;;;;;1.05;0.70;;;18.90;68.40;;;;;;5017666;28;20499;-75
2022/12/27 06:07:42;;;;;;;0.75;0.70;;;18.90;68.30;;;;;;5032040;28;20022;-74
2022/12/27 06:10:08;;;;;;;0.60;0.60;;;18.90;68.40;;;;;;5031017;28;20048;-75
2022/12/27 06:12:34;;;;;;;1.23;0.47;;;18.90;68.30;;;;;;5030264;28;20022;-74
2022/12/27 06:15:00;;;;;;;1.08;0.85;;;18.90;68.30;;;;;;5011161;28;20117;-74
2022/12/27 06:17:25;;;;;;;0.68;0.68;;;18.90;68.30;;;;;;5012117;28;20021;-75
2022/12/27 06:19:51;;;;;;;0.73;0.70;;;18.90;68.30;;;;;;5011032;28;20033;-74
2022/12/27 06:22:17;;;;;;;0.60;0.60;;;18.90;68.30;;;;;;5011172;28;20037;-75
2022/12/27 06:24:42;;;;;;;0.73;0.43;;;18.90;68.30;;;;;;5012104;28;20037;-74
2022/12/27 06:27:08;;;;;;;1.80;0.60;;;18.90;68.30;;;;;;5011222;28;20362;-74
2022/12/27 06:29:34;;;;;;;0.70;0.60;;;18.90;68.30;;;;;;5010945;28;20559;-75
2022/12/27 06:31:59;;;;;;;0.73;0.73;;;18.90;68.20;;;;;;5011952;28;20040;-74
2022/12/27 06:34:25;;;;;;;0.73;0.70;;;18.90;68.30;;;;;;5010961;28;20057;-75
2022/12/27 06:36:51;;;;;;;0.60;0.60;;;18.90;68.30;;;;;;5012102;28;20030;-74
2022/12/27 06:39:17;;;;;;;0.55;0.55;;;18.90;68.40;;;;;;5011152;28;20010;-75
2022/12/27 06:41:43;;;;;;;0.82;0.75;;;18.90;68.30;;;;;;5010977;28;20024;-74
2022/12/27 06:44:08;;;;;;;0.60;0.60;;;18.90;68.30;;;;;;5011817;28;20119;-75
2022/12/27 06:46:34;;;;;;;0.52;0.50;;;18.90;68.30;;;;;;5011539;28;20389;-74
2022/12/27 06:49:00;;;;;;;1.33;0.60;;;18.90;68.40;;;;;;5015607;28;20432;-75
2022/12/27 06:51:25;;;;;;;0.88;0.50;;;18.90;68.40;;;;;;5015028;28;20033;-74
2022/12/27 06:53:51;;;;;;;0.60;0.60;;;18.90;68.30;;;;;;5033476;28;20026;-74
2022/12/27 06:56:18;;;;;;;0.75;0.60;;;18.90;68.30;;;;;;5033325;28;20034;-74
2022/12/27 06:58:48;;;;;;;1.95;0.55;;;18.90;68.30;;;;;;5033307;28;20029;-74
2022/12/27 07:01:16;;;;;;;0.80;0.60;;;18.90;68.30;;;;;;5034256;28;20057;-74
2022/12/27 07:03:41;;;;;;;1.52;0.50;;;18.90;68.30;;;;;;5033094;28;20543;-74
2022/12/27 07:06:08;;;;;;;0.50;0.50;;;18.90;68.30;;;;;;5016237;28;20045;-75
2022/12/27 07:08:34;;;;;;;0.60;0.60;;;18.90;68.30;;;;;;5033066;28;20014;-74
2022/12/27 07:11:01;;;;;;;0.80;0.80;;;18.90;68.30;;;;;;5033088;28;20029;-74
2022/12/27 07:13:26;;;;;;;0.45;0.45;;;18.90;68.30;;;;;;5025260;28;20022;-74
2022/12/27 07:15:52;;;;;;;0.57;0.50;;;18.90;68.30;;;;;;5011599;28;20153;-78
2022/12/27 07:18:17;;;;;;;0.30;0.30;;;18.90;68.30;;;;;;5012766;28;20057;-78
2022/12/27 07:20:43;;;;;;;0.90;0.50;;;18.90;68.20;;;;;;4996372;28;20064;-76
2022/12/27 07:23:09;;;;;;;1.85;0.55;;;18.80;67.70;;;;;;5014448;28;20081;-77
2022/12/27 07:25:34;;;;;;;0.75;0.60;;;18.80;67.50;;;;;;5013833;28;20450;-77
2022/12/27 07:28:00;;;;;;;3.22;0.60;;;18.70;67.20;;;;;;5012716;28;20480;-75
2022/12/27 07:30:28;;;;;;;0.75;0.68;;;18.70;67.00;;;;;;5014001;28;20037;-74
2022/12/27 07:32:54;;;;;;;0.60;0.60;;;18.70;66.80;;;;;;5012672;28;20014;-75
2022/12/27 07:35:19;;;;;;;0.80;0.40;;;18.70;66.60;;;;;;5012823;28;20037;-75
2022/12/27 07:37:45;;;;;;;0.40;0.40;;;18.60;66.40;;;;;;5013890;28;20029;-75
2022/12/27 07:40:11;;;;;;;0.60;0.60;;;18.60;66.20;;;;;;5013941;28;20022;-75
2022/12/27 07:42:36;;;;;;;0.65;0.60;;;18.50;66.10;;;;;;5012447;28;20029;-75
2022/12/27 07:45:02;;;;;;;0.65;0.50;;;18.50;66.00;;;;;;5012144;28;20037;-75
2022/12/27 07:47:27;;;;;;;2.55;0.47;;;18.50;65.90;;;;;;5012780;28;20025;-74
2022/12/27 07:49:53;;;;;;;0.50;0.50;;;18.40;65.80;;;;;;5013733;28;20026;-74
2022/12/27 07:52:19;;;;;;;3.40;1.33;;;18.40;65.80;;;;;;5028171;28;20029;-74
2022/12/27 07:54:45;;;;;;;9.55;2.20;;;18.40;65.90;;;;;;5032883;28;20480;-74
2022/12/27 07:57:10;;;;;;;4.95;1.40;;;18.30;66.00;;;;;;5031432;28;20484;-74
2022/12/27 07:59:36;;;;;;;7.22;2.28;;;18.30;66.20;;;;;;5030428;28;20037;-74
2022/12/27 08:02:05;;;;;;;6.72;1.95;;;18.20;66.30;;;;;;5032753;28;20052;-74
2022/12/27 08:04:31;;;;;;;7.30;2.40;;;18.20;66.50;;;;;;5016066;28;20064;-74
2022/12/27 08:07:04;;;;;;;7.35;1.88;;;18.20;66.60;;;;;;5015265;28;20080;-74
2022/12/27 08:09:31;;;;;;;4.72;1.73;;;18.10;66.60;;;;;;5031759;28;20053;-74
2022/12/27 08:11:56;;;;;;;6.03;2.10;;;18.20;66.70;;;;;;5015950;28;20153;-74
2022/12/27 08:14:22;;;;;;;6.35;1.90;;;18.10;66.70;;;;;;5033536;28;20513;-74
2022/12/27 08:16:47;;;;;;;2.50;1.30;;;18.10;66.80;;;;;;5032403;28;20495;-75
2022/12/27 08:19:13;;;;;;;5.60;1.85;;;18.10;66.80;;;;;;5032427;28;20061;-74
2022/12/27 08:21:39;;;;;;;7.68;2.28;;;18.00;66.70;;;;;;5032608;28;20526;-74
2022/12/27 08:24:05;;;;;;;6.25;1.70;;;18.00;66.80;;;;;;5033527;28;20530;-74
2022/12/27 08:26:30;;;;;;;5.55;1.73;;;18.00;66.90;;;;;;5033625;28;20022;-74
2022/12/27 08:28:56;;;;;;;7.85;1.73;;;17.90;66.90;;;;;;5031893;28;20098;-74
2022/12/27 08:31:21;;;;;;;4.70;1.90;;;17.90;66.90;;;;;;5033565;28;20111;-74
2022/12/27 08:33:47;;;;;;;5.93;1.33;;;17.90;66.90;;;;;;5032312;28;20454;-74
2022/12/27 08:36:13;;;;;;;5.93;1.60;;;17.80;66.90;;;;;;5033531;28;20036;-74
2022/12/27 08:38:39;;;;;;;6.20;1.95;;;17.70;66.80;;;;;;5033271;28;20476;-74
2022/12/27 08:41:04;;;;;;;6.25;2.13;;;17.70;66.80;;;;;;5033305;28;20084;-74
2022/12/27 08:43:30;;;;;;;6.93;1.60;;;17.80;66.90;;;;;;5032131;28;20032;-74
2022/12/27 08:46:03;;;;;;;5.50;2.05;;;17.70;66.90;;;;;;5033196;28;20029;-74
2022/12/27 08:48:30;;;;;;;;;;;17.70;66.90;;;;;;5032465;28;20056;-74
2022/12/27 08:50:56;;;;;;;5.78;2.33;;;17.60;66.90;;;;;;5064681;28;19905;-74
2022/12/27 08:53:21;;;;;;;4.47;2.03;;;17.60;66.80;;;;;;5031662;28;20033;-74
2022/12/27 08:55:47;;;;;;;4.07;1.77;;;17.60;66.90;;;;;;5033026;28;20035;-74
2022/12/27 08:58:12;;;;;;;7.38;1.80;;;17.50;66.80;;;;;;5032742;28;20021;-74
2022/12/27 09:00:38;;;;;;;4.28;1.60;;;17.50;66.80;;;;;;5016179;28;20050;-74
2022/12/27 09:03:04;;;;;;;7.15;1.85;;;17.50;66.90;;;;;;5013194;28;20436;-74
2022/12/27 09:05:29;;;;;;;5.38;1.83;;;17.50;66.80;;;;;;5012789;28;20566;-74
2022/12/27 09:07:55;;;;;;;6.03;2.00;;;17.50;66.80;;;;;;5012993;28;20064;-74
2022/12/27 09:10:21;;;;;;;5.30;1.60;;;17.40;66.80;;;;;;5011704;28;20087;-74
2022/12/27 09:12:47;;;;;;;5.22;1.73;;;17.40;66.70;;;;;;5011609;28;20069;-75
2022/12/27 09:15:12;;;;;;;6.13;1.90;;;17.40;66.90;;;;;;5012104;28;20404;-74
2022/12/27 09:17:38;;;;;;;3.72;1.65;;;17.40;66.80;;;;;;5011744;28;20113;-74
2022/12/27 09:20:04;;;;;;;4.63;1.65;;;17.40;66.80;;;;;;5011648;28;20030;-74
2022/12/27 09:22:30;;;;;;;4.32;1.70;;;17.40;66.80;;;;;;5011837;28;20026;-74
2022/12/27 09:24:56;;;;;;;3.65;1.67;;;17.30;66.80;;;;;;5012738;28;20048;-74
2022/12/27 09:27:21;;;;;;;6.63;2.00;;;17.30;66.90;;;;;;5011443;28;20050;-74
2022/12/27 09:29:47;;;;;;;3.78;2.10;;;17.20;66.70;;;;;;5012808;28;20488;-74
2022/12/27 09:32:13;;;;;;;5.07;1.67;;;17.30;66.80;;;;;;5012840;28;20026;-74
2022/12/27 09:34:38;;;;;;;4.15;1.58;;;17.20;66.70;;;;;;5012773;28;20407;-74
2022/12/27 09:37:04;;;;;;;4.00;1.92;;;17.20;66.80;;;;;;5012689;28;20551;-74
2022/12/27 09:39:29;;;;;;;2.65;1.58;;;17.20;66.70;;;;;;5012742;28;20105;-74
2022/12/27 09:42:14;;;;;;;4.43;1.67;;;17.20;66.80;;;;;;5011309;28;20018;-74
2022/12/27 09:44:43;;;;;;;4.80;1.50;;;17.10;66.80;;;;;;5011459;28;20018;-74
2022/12/27 09:47:25;;;;;;;4.65;1.88;;;17.10;66.80;;;;;;5011370;28;20025;-74
2022/12/27 09:50:05;;;;;;;6.50;1.92;;;17.10;66.90;;;;;;5011444;28;20612;-74
2022/12/27 09:52:34;;;;;;;4.20;1.75;;;17.10;67.00;;;;;;5018825;28;20124;-75
2022/12/27 09:55:18;;;;;;;3.95;2.10;;;17.10;66.90;;;;;;5030785;28;20053;-74
2022/12/27 09:57:44;;;;;;;4.32;1.63;;;17.00;67.00;;;;;;5031055;28;20159;-74
2022/12/27 10:00:19;;;;;;;3.15;1.30;;;17.00;67.00;;;;;;5017867;28;20021;-74
2022/12/27 10:02:46;;;;;;;5.97;1.80;;;17.00;67.00;;;;;;5011359;28;20034;-74
2022/12/27 10:05:28;;;;;;;4.10;1.52;;;17.00;67.10;;;;;;5012315;28;20026;-74
2022/12/27 10:08:12;;;;;;;3.83;1.40;;;17.00;67.10;;;;;;5011115;28;20475;-74
2022/12/27 10:11:01;;;;;;;2.33;1.30;;;17.00;67.20;;;;;;5012124;28;20033;-74
2022/12/27 10:13:50;;;;;;;6.10;1.65;;;16.90;67.10;;;;;;5011186;28;20022;-74
2022/12/27 10:16:27;;;;;;;2.53;1.40;;;16.90;67.10;;;;;;5011228;28;20049;-74
2022/12/27 10:19:20;;;;;;;2.72;1.60;;;16.90;67.20;;;;;;5010963;28;20026;-74
2022/12/27 10:22:20;;;;;;;2.15;1.33;;;16.90;67.10;;;;;;5012764;28;20485;-74
2022/12/27 10:24:48;;;;;;;3.58;1.50;;;16.80;67.10;;;;;;4994029;28;20027;-74
2022/12/27 10:27:16;;;;;;;4.28;1.50;;;16.80;67.20;;;;;;4962255;28;20030;-74
2022/12/27 10:29:42;;;;;;;2.90;1.40;;;16.80;67.10;;;;;;4962566;28;20062;-74
2022/12/27 10:32:13;;;;;;;2.88;1.40;;;16.80;67.10;;;;;;4962074;28;20062;-74
2022/12/27 10:34:38;;;;;;;2.75;1.40;;;16.80;67.20;;;;;;4994185;28;20017;-75
2022/12/27 10:37:04;;;;;;;2.67;1.85;;;16.70;67.10;;;;;;4977971;28;20034;-74
2022/12/27 10:39:31;;;;;;;3.05;1.50;;;16.70;67.10;;;;;;4977684;28;20525;-74
2022/12/27 10:41:59;;;;;;;2.67;1.40;;;16.70;67.10;;;;;;4961985;28;20044;-74
2022/12/27 10:44:25;;;;;;;2.63;1.15;;;16.70;67.10;;;;;;4994004;28;20026;-74
2022/12/27 10:46:54;;;;;;;3.92;1.30;;;16.70;67.10;;;;;;4977801;28;20035;-74
2022/12/27 10:49:23;;;;;;;4.10;1.50;;;16.60;67.10;;;;;;4977814;28;20056;-74
2022/12/27 10:51:54;;;;;;;4.35;1.40;;;16.60;67.10;;;;;;4963602;28;20388;-74
2022/12/27 10:54:22;;;;;;;2.53;1.35;;;16.60;67.10;;;;;;5013122;28;20073;-74
2022/12/27 10:56:47;;;;;;;2.80;1.25;;;16.60;67.20;;;;;;4997223;28;20061;-74
2022/12/27 10:59:15;;;;;;;4.63;1.13;;;16.60;67.20;;;;;;5013140;28;20084;-74
2022/12/27 11:01:42;;;;;;;1.23;1.13;;;16.60;67.20;;;;;;5008523;28;20523;-74
2022/12/27 11:04:16;;;;;;;2.67;1.13;;;16.60;67.20;;;;;;5017624;28;20013;-74
2022/12/27 11:06:42;;;;;;;4.85;1.30;;;16.50;67.20;;;;;;5017789;28;20084;-74
2022/12/27 11:09:17;;;;;;;2.63;1.40;;;16.50;67.20;;;;;;5017299;28;20105;-74
2022/12/27 11:11:42;;;;;;;3.92;1.00;;;16.50;67.20;;;;;;5035015;28;20078;-74
2022/12/27 11:14:09;;;;;;;3.78;1.23;;;16.50;67.20;;;;;;5034854;28;20475;-74
2022/12/27 11:16:35;;;;;;;2.17;1.20;;;16.50;67.20;;;;;;5032782;28;20025;-74
2022/12/27 11:19:00;;;;;;;3.33;1.10;;;16.50;67.20;;;;;;5033438;28;20030;-74
2022/12/27 11:21:27;;;;;;;3.42;1.33;;;16.40;67.20;;;;;;5020814;28;20029;-74
2022/12/27 11:23:56;;;;;;;2.35;1.33;;;16.40;67.20;;;;;;5013639;28;20022;-74
2022/12/27 11:26:23;;;;;;;2.00;1.20;;;16.40;67.20;;;;;;5031907;28;20052;-74
2022/12/27 11:28:54;;;;;;;4.28;1.40;;;16.40;67.20;;;;;;5033651;28;20037;-74
2022/12/27 11:31:26;;;;;;;2.70;1.23;;;16.40;67.30;;;;;;5033409;28;20083;-74
2022/12/27 11:33:56;;;;;;;2.58;1.45;;;16.30;67.20;;;;;;5033421;28;20025;-74
2022/12/27 11:36:43;;;;;;;3.10;1.30;;;16.30;67.20;;;;;;5033211;28;20033;-74
2022/12/27 11:39:47;;;;;;;1.85;1.42;;;16.30;67.20;;;;;;5033157;28;20034;-74
2022/12/27 11:42:24;;;;;;;3.72;1.33;;;16.30;67.30;;;;;;5032926;28;20040;-74
2022/12/27 11:44:58;;;;;;;1.95;1.23;;;16.30;67.30;;;;;;5034272;28;20028;-74
2022/12/27 11:47:31;;;;;;;4.13;1.10;;;16.30;67.30;;;;;;5033148;28;20014;-74
2022/12/27 11:50:09;;;;;;;3.28;1.40;;;16.30;67.30;;;;;;5017256;28;20400;-74
2022/12/27 11:52:51;;;;;;;1.35;1.00;;;16.20;67.30;;;;;;5034007;28;20025;-74
2022/12/27 11:55:32;;;;;;;2.47;1.33;;;16.20;67.30;;;;;;5033129;28;20850;-74
2022/12/27 11:58:23;;;;;;;1.92;1.30;;;16.20;67.30;;;;;;5034212;28;20036;-74
2022/12/27 12:01:17;;;;;;;2.13;1.02;;;16.20;67.30;;;;;;5031275;28;20049;-74
2022/12/27 12:04:04;;;;;;;2.88;1.48;;;16.20;67.30;;;;;;5032945;28;20045;-74
2022/12/27 12:06:53;;;;;;;1.25;0.70;;;16.20;67.40;;;;;;5033776;28;20021;-74
2022/12/27 12:09:28;;;;;;;2.53;1.23;;;16.10;67.30;;;;;;5033031;28;20032;-74
2022/12/27 12:12:04;;;;;;;4.60;1.33;;;16.10;67.30;;;;;;5033897;28;20029;-75
2022/12/27 12:14:55;;;;;;;2.53;1.30;;;16.10;67.40;;;;;;5032726;28;20488;-74
2022/12/27 12:17:39;;;;;;;1.65;1.23;;;16.10;67.40;;;;;;5011531;28;20038;-74
2022/12/27 12:20:37;;;;;;;1.95;0.90;;;16.10;67.40;;;;;;5011559;28;20030;-74
2022/12/27 12:23:23;;;;;;;1.90;1.05;;;16.10;67.40;;;;;;4995304;28;20038;-74
2022/12/27 12:25:57;;;;;;;3.83;1.38;;;16.10;67.40;;;;;;4979801;28;20117;-74
2022/12/27 12:28:47;;;;;;;2.05;1.10;;;16.10;67.50;;;;;;4975734;28;20037;-74
2022/12/27 12:31:19;;;;;;;2.67;1.38;;;16.00;67.40;;;;;;4992093;28;20049;-74
2022/12/27 12:33:50;;;;;;;1.98;0.90;;;16.00;67.40;;;;;;4992108;28;20026;-74
2022/12/27 12:36:37;;;;;;;1.75;1.10;;;16.00;67.50;;;;;;4991693;28;20076;-74
2022/12/27 12:39:14;;;;;;;2.00;1.20;;;16.00;67.50;;;;;;4992016;28;20041;-74
2022/12/27 12:41:44;;;;;;;1.27;0.98;;;16.00;67.50;;;;;;4960301;28;20198;-75
2022/12/27 12:44:34;;;;;;;1.65;1.25;;;16.00;67.60;;;;;;4974986;28;20026;-74
2022/12/27 12:47:07;;;;;;;1.90;1.00;;;16.00;67.50;;;;;;4991867;28;20121;-74
2022/12/27 12:49:33;;;;;;;1.27;0.90;;;15.90;67.50;;;;;;4975344;28;20022;-74
2022/12/27 12:52:22;;;;;;;1.38;1.02;;;16.00;67.60;;;;;;4991649;28;20109;-74
2022/12/27 12:55:13;;;;;;;1.42;0.95;;;15.90;67.50;;;;;;5032815;28;20109;-74
2022/12/27 12:57:52;;;;;;;1.23;0.85;;;15.90;67.50;;;;;;5012492;28;20032;-75
2022/12/27 13:00:26;;;;;;;2.13;1.23;;;15.90;67.50;;;;;;5011897;28;20022;-74
2022/12/27 13:03:14;;;;;;;1.40;0.85;;;15.90;67.50;;;;;;5012041;28;20037;-74
2022/12/27 13:06:11;;;;;;;2.75;1.20;;;15.90;67.60;;;;;;5013277;28;20511;-74
2022/12/27 13:08:47;;;;;;;2.30;1.10;;;15.90;67.60;;;;;;5011986;28;20022;-74
2022/12/27 13:11:32;;;;;;;1.60;0.90;;;15.90;67.60;;;;;;5011821;28;20480;-74
2022/12/27 13:14:34;;;;;;;1.63;1.08;;;15.90;67.70;;;;;;5011826;28;20026;-74
2022/12/27 13:17:14;;;;;;;1.45;1.10;;;15.80;67.60;;;;;;5020193;28;20071;-74
2022/12/27 13:20:00;;;;;;;1.70;1.30;;;15.80;67.60;;;;;;5029619;28;20029;-74
2022/12/27 13:22:48;;;;;;;2.22;0.95;;;15.80;67.70;;;;;;5015122;28;20026;-75
2022/12/27 13:25:36;;;;;;;1.35;1.00;;;15.80;67.70;;;;;;5032459;28;20052;-74
2022/12/27 13:28:16;;;;;;;1.20;0.80;;;15.80;67.70;;;;;;5020576;28;20042;-74
2022/12/27 13:30:55;;;;;;;1.15;0.80;;;15.80;67.70;;;;;;5011660;28;20124;-74
2022/12/27 13:33:24;;;;;;;2.22;0.90;;;15.80;67.70;;;;;;5011248;28;20036;-74
2022/12/27 13:35:58;;;;;;;1.30;0.80;;;15.80;67.70;;;;;;5018759;28;20036;-74
2022/12/27 13:38:52;;;;;;;1.13;0.70;;;15.80;67.70;;;;;;5031294;28;20029;-74
2022/12/27 13:41:35;;;;;;;1.00;0.85;;;15.80;67.70;;;;;;5032255;28;20061;-75
2022/12/27 13:44:01;;;;;;;1.92;1.10;;;15.80;67.70;;;;;;5032180;28;20022;-74
2022/12/27 13:46:45;;;;;;;1.50;0.88;;;15.70;67.70;;;;;;5032328;28;20430;-74
2022/12/27 13:49:16;;;;;;;0.85;0.68;;;15.70;67.70;;;;;;5031173;28;20045;-74
2022/12/27 13:51:47;;;;;;;0.93;0.70;;;15.70;67.80;;;;;;5032298;28;20033;-74
2022/12/27 13:54:34;;;;;;;1.75;0.90;;;15.70;67.80;;;;;;5014402;28;20152;-74
2022/12/27 13:57:03;;;;;;;2.13;0.80;;;15.70;67.80;;;;;;5014310;28;20030;-74
2022/12/27 14:00:03;;;;;;;1.67;0.93;;;15.60;67.70;;;;;;5016394;28;20113;-75
2022/12/27 14:02:37;;;;;;;1.05;0.70;;;15.60;67.70;;;;;;5016349;28;20049;-74
2022/12/27 14:05:22;;;;;;;1.35;0.85;;;15.70;67.80;;;;;;5016441;28;20105;-74
2022/12/27 14:08:25;;;;;;;2.65;0.88;;;15.60;67.80;;;;;;5016461;28;20152;-74
2022/12/27 14:10:51;;;;;;;1.60;0.82;;;15.60;67.80;;;;;;5016594;28;20027;-74
2022/12/27 14:13:40;;;;;;;1.02;0.70;;;15.60;67.80;;;;;;5016363;28;20037;-74
2022/12/27 14:16:29;;;;;;;1.13;0.80;;;15.60;67.80;;;;;;5015626;28;20030;-74
2022/12/27 14:19:01;;;;;;;1.38;0.80;;;15.60;67.80;;;;;;5031587;28;20038;-74
2022/12/27 14:21:49;;;;;;;1.55;0.98;;;15.60;67.80;;;;;;5016153;28;20030;-74
2022/12/27 14:24:32;;;;;;;1.05;0.80;;;15.60;67.90;;;;;;5014864;28;20513;-74
2022/12/27 14:27:13;;;;;;;0.93;0.65;;;15.60;67.90;;;;;;5021313;28;20097;-74
2022/12/27 14:29:54;;;;;;;1.58;0.70;;;15.60;67.90;;;;;;5035823;28;20030;-74
2022/12/27 14:32:32;;;;;;;1.70;0.93;;;15.60;67.90;;;;;;5034143;28;20025;-74
2022/12/27 14:35:29;;;;;;;1.13;0.70;;;15.60;67.90;;;;;;5034390;28;20045;-74
2022/12/27 14:38:00;;;;;;;1.88;0.75;;;15.50;67.80;;;;;;5029949;28;20022;-74
2022/12/27 14:40:53;;;;;;;1.08;0.70;;;15.50;67.80;;;;;;5035422;28;20026;-74
2022/12/27 14:43:25;;;;;;;0.88;0.60;;;15.50;67.90;;;;;;5034302;28;20108;-74
2022/12/27 14:45:53;;;;;;;1.80;1.00;;;15.50;67.90;;;;;;5035401;28;20557;-74